sensor_id;sensor_type;location;lat;lon;timestamp;pressure;altitude;pressure_sealevel;temperature;humidity
59407;BME280;45208;32.616;-115.472;2022-07-29T00:01:18;100469.00;;;53.46;9.48
59407;BME280;45208;32.616;-115.472;2022-07-29T00:03:45;100465.63;;;54.07;9.83
59407;BME280;45208;32.616;-115.472;2022-07-29T00:06:12;100470.94;;;50.22;12.58
59407;BME280;45208;32.616;-115.472;2022-07-29T00:08:39;100483.41;;;50.68;12.36
59407;BME280;45208;32.616;-115.472;2022-07-29T00:11:06;100461.13;;;49.50;12.26
59407;BME280;45208;32.616;-115.472;2022-07-29T00:13:32;100459.78;;;49.75;12.37
59407;BME280;45208;32.616;-115.472;2022-07-29T00:15:59;100462.13;;;51.90;11.35
59407;BME280;45208;32.616;-115.472;2022-07-29T00:18:26;100462.25;;;51.05;11.80
59407;BME280;45208;32.616;-115.472;2022-07-29T00:20:53;100465.47;;;50.37;11.86
59407;BME280;45208;32.616;-115.472;2022-07-29T00:23:19;100463.66;;;50.85;11.48
59407;BME280;45208;32.616;-115.472;2022-07-29T00:25:46;100466.91;;;50.12;11.63
59407;BME280;45208;32.616;-115.472;2022-07-29T00:28:13;100467.00;;;49.63;12.46
59407;BME280;45208;32.616;-115.472;2022-07-29T00:30:39;100458.81;;;49.18;12.54
59407;BME280;45208;32.616;-115.472;2022-07-29T00:33:09;100451.81;;;48.84;13.19
59407;BME280;45208;32.616;-115.472;2022-07-29T00:35:37;100454.84;;;49.70;12.58
59407;BME280;45208;32.616;-115.472;2022-07-29T00:38:14;100454.19;;;49.58;12.25
59407;BME280;45208;32.616;-115.472;2022-07-29T00:40:42;100455.31;;;47.03;14.32
59407;BME280;45208;32.616;-115.472;2022-07-29T00:43:09;100448.56;;;47.86;14.01
59407;BME280;45208;32.616;-115.472;2022-07-29T00:45:36;100447.47;;;47.09;14.83
59407;BME280;45208;32.616;-115.472;2022-07-29T00:48:03;100453.16;;;48.06;14.00
59407;BME280;45208;32.616;-115.472;2022-07-29T00:50:31;100448.28;;;47.84;14.20
59407;BME280;45208;32.616;-115.472;2022-07-29T00:52:58;100440.13;;;47.19;14.65
59407;BME280;45208;32.616;-115.472;2022-07-29T00:55:25;100448.09;;;45.92;15.79
59407;BME280;45208;32.616;-115.472;2022-07-29T00:57:52;100445.31;;;46.14;15.60
59407;BME280;45208;32.616;-115.472;2022-07-29T01:00:23;100447.44;;;45.60;15.92
59407;BME280;45208;32.616;-115.472;2022-07-29T01:02:50;100438.88;;;46.92;14.48
59407;BME280;45208;32.616;-115.472;2022-07-29T01:05:19;100438.03;;;46.19;15.67
59407;BME280;45208;32.616;-115.472;2022-07-29T01:07:49;100446.38;;;45.57;15.96
59407;BME280;45208;32.616;-115.472;2022-07-29T01:10:18;100454.75;;;45.12;16.26
59407;BME280;45208;32.616;-115.472;2022-07-29T01:12:48;100451.19;;;45.77;16.19
59407;BME280;45208;32.616;-115.472;2022-07-29T01:15:15;100455.50;;;44.76;16.72
59407;BME280;45208;32.616;-115.472;2022-07-29T01:21:15;100453.66;;;45.47;15.99
59407;BME280;45208;32.616;-115.472;2022-07-29T01:32:01;100455.69;;;44.98;16.26
59407;BME280;45208;32.616;-115.472;2022-07-29T01:35:35;100459.94;;;44.25;16.86
59407;BME280;45208;32.616;-115.472;2022-07-29T01:40:40;100464.97;;;43.13;19.08
59407;BME280;45208;32.616;-115.472;2022-07-29T01:43:14;100469.72;;;42.43;19.54
59407;BME280;45208;32.616;-115.472;2022-07-29T01:45:51;100466.00;;;41.50;20.54
59407;BME280;45208;32.616;-115.472;2022-07-29T01:51:12;100493.50;;;40.96;21.61
59407;BME280;45208;32.616;-115.472;2022-07-29T01:56:18;100497.41;;;41.08;21.07
59407;BME280;45208;32.616;-115.472;2022-07-29T01:58:48;100504.13;;;40.78;21.62
59407;BME280;45208;32.616;-115.472;2022-07-29T02:01:16;100503.69;;;40.61;22.08
59407;BME280;45208;32.616;-115.472;2022-07-29T02:03:45;100503.44;;;40.40;22.42
59407;BME280;45208;32.616;-115.472;2022-07-29T02:06:15;100505.91;;;40.38;22.34
59407;BME280;45208;32.616;-115.472;2022-07-29T02:08:45;100508.13;;;40.16;22.17
59407;BME280;45208;32.616;-115.472;2022-07-29T02:11:13;100504.91;;;39.68;23.26
59407;BME280;45208;32.616;-115.472;2022-07-29T02:13:41;100515.75;;;39.51;22.90
59407;BME280;45208;32.616;-115.472;2022-07-29T02:16:09;100518.00;;;39.16;23.38
59407;BME280;45208;32.616;-115.472;2022-07-29T02:18:40;100522.78;;;38.97;23.33
59407;BME280;45208;32.616;-115.472;2022-07-29T02:21:10;100524.28;;;38.89;23.91
59407;BME280;45208;32.616;-115.472;2022-07-29T02:23:38;100527.41;;;38.60;24.04
59407;BME280;45208;32.616;-115.472;2022-07-29T02:26:06;100521.00;;;38.47;24.44
59407;BME280;45208;32.616;-115.472;2022-07-29T02:28:35;100533.00;;;38.29;24.86
59407;BME280;45208;32.616;-115.472;2022-07-29T02:31:02;100529.94;;;38.24;24.90
59407;BME280;45208;32.616;-115.472;2022-07-29T02:33:30;100547.44;;;38.22;24.98
59407;BME280;45208;32.616;-115.472;2022-07-29T02:35:58;100543.50;;;38.07;25.39
59407;BME280;45208;32.616;-115.472;2022-07-29T02:38:27;100551.66;;;38.05;25.61
59407;BME280;45208;32.616;-115.472;2022-07-29T02:41:20;100551.16;;;37.85;26.06
59407;BME280;45208;32.616;-115.472;2022-07-29T02:43:50;100557.19;;;37.74;26.66
59407;BME280;45208;32.616;-115.472;2022-07-29T02:46:23;100563.31;;;37.60;27.35
59407;BME280;45208;32.616;-115.472;2022-07-29T02:49:18;100566.72;;;37.55;27.68
59407;BME280;45208;32.616;-115.472;2022-07-29T02:52:06;100565.59;;;37.39;28.01
59407;BME280;45208;32.616;-115.472;2022-07-29T02:54:46;100569.19;;;37.27;27.96
59407;BME280;45208;32.616;-115.472;2022-07-29T02:57:53;100581.19;;;37.18;28.31
59407;BME280;45208;32.616;-115.472;2022-07-29T03:00:24;100580.16;;;37.12;28.27
59407;BME280;45208;32.616;-115.472;2022-07-29T03:02:56;100587.50;;;37.10;27.80
59407;BME280;45208;32.616;-115.472;2022-07-29T03:05:23;100587.50;;;37.10;28.00
59407;BME280;45208;32.616;-115.472;2022-07-29T03:07:57;100590.22;;;37.01;28.30
59407;BME280;45208;32.616;-115.472;2022-07-29T03:10:25;100589.97;;;36.95;27.72
59407;BME280;45208;32.616;-115.472;2022-07-29T03:12:57;100594.59;;;36.89;27.95
59407;BME280;45208;32.616;-115.472;2022-07-29T03:15:24;100602.44;;;36.85;27.43
59407;BME280;45208;32.616;-115.472;2022-07-29T03:17:52;100609.78;;;36.82;27.75
59407;BME280;45208;32.616;-115.472;2022-07-29T03:20:19;100623.19;;;36.78;28.09
59407;BME280;45208;32.616;-115.472;2022-07-29T03:22:47;100621.66;;;36.61;28.49
59407;BME280;45208;32.616;-115.472;2022-07-29T03:25:15;100622.56;;;36.58;28.49
59407;BME280;45208;32.616;-115.472;2022-07-29T03:27:43;100630.91;;;36.49;28.89
59407;BME280;45208;32.616;-115.472;2022-07-29T03:30:11;100633.88;;;36.58;28.38
59407;BME280;45208;32.616;-115.472;2022-07-29T03:32:38;100641.97;;;36.43;28.60
59407;BME280;45208;32.616;-115.472;2022-07-29T03:35:06;100635.16;;;36.41;28.69
59407;BME280;45208;32.616;-115.472;2022-07-29T03:37:33;100631.44;;;36.27;28.85
59407;BME280;45208;32.616;-115.472;2022-07-29T03:40:01;100634.19;;;36.31;28.77
59407;BME280;45208;32.616;-115.472;2022-07-29T03:42:32;100644.69;;;36.30;28.87
59407;BME280;45208;32.616;-115.472;2022-07-29T03:45:03;100640.78;;;36.24;28.99
59407;BME280;45208;32.616;-115.472;2022-07-29T03:47:33;100631.91;;;36.10;29.25
59407;BME280;45208;32.616;-115.472;2022-07-29T03:50:06;100653.28;;;36.11;28.66
59407;BME280;45208;32.616;-115.472;2022-07-29T03:52:33;100649.47;;;36.17;28.63
59407;BME280;45208;32.616;-115.472;2022-07-29T03:55:02;100657.78;;;36.08;28.52
59407;BME280;45208;32.616;-115.472;2022-07-29T03:57:30;100650.53;;;36.07;28.20
59407;BME280;45208;32.616;-115.472;2022-07-29T03:59:58;100647.63;;;36.11;28.52
59407;BME280;45208;32.616;-115.472;2022-07-29T04:02:30;100644.63;;;36.01;28.86
59407;BME280;45208;32.616;-115.472;2022-07-29T04:04:58;100651.16;;;35.98;28.61
59407;BME280;45208;32.616;-115.472;2022-07-29T04:07:25;100660.25;;;35.90;28.53
59407;BME280;45208;32.616;-115.472;2022-07-29T04:09:52;100665.19;;;35.86;29.05
59407;BME280;45208;32.616;-115.472;2022-07-29T04:12:18;100657.75;;;35.76;29.04
59407;BME280;45208;32.616;-115.472;2022-07-29T04:14:47;100654.03;;;35.79;28.85
59407;BME280;45208;32.616;-115.472;2022-07-29T04:17:14;100649.41;;;35.68;29.17
59407;BME280;45208;32.616;-115.472;2022-07-29T04:19:41;100653.38;;;35.71;29.18
59407;BME280;45208;32.616;-115.472;2022-07-29T04:22:08;100650.13;;;35.72;28.96
59407;BME280;45208;32.616;-115.472;2022-07-29T04:24:34;100632.63;;;35.61;29.75
59407;BME280;45208;32.616;-115.472;2022-07-29T04:27:01;100657.63;;;35.63;29.42
59407;BME280;45208;32.616;-115.472;2022-07-29T04:29:28;100658.94;;;35.58;29.13
59407;BME280;45208;32.616;-115.472;2022-07-29T04:31:54;100667.06;;;35.56;29.39
59407;BME280;45208;32.616;-115.472;2022-07-29T04:34:21;100658.03;;;35.45;29.33
59407;BME280;45208;32.616;-115.472;2022-07-29T04:36:48;100664.03;;;35.47;29.02
59407;BME280;45208;32.616;-115.472;2022-07-29T04:39:14;100657.22;;;35.45;29.17
59407;BME280;45208;32.616;-115.472;2022-07-29T04:41:41;100660.41;;;35.47;28.67
59407;BME280;45208;32.616;-115.472;2022-07-29T04:44:08;100665.19;;;35.50;29.22
59407;BME280;45208;32.616;-115.472;2022-07-29T04:46:34;100660.84;;;35.45;29.04
59407;BME280;45208;32.616;-115.472;2022-07-29T04:49:02;100661.38;;;35.40;28.87
59407;BME280;45208;32.616;-115.472;2022-07-29T04:51:29;100659.03;;;35.35;28.66
59407;BME280;45208;32.616;-115.472;2022-07-29T04:53:56;100640.03;;;35.16;28.60
59407;BME280;45208;32.616;-115.472;2022-07-29T04:56:23;100663.75;;;35.22;28.68
59407;BME280;45208;32.616;-115.472;2022-07-29T04:58:50;100680.63;;;35.25;29.06
59407;BME280;45208;32.616;-115.472;2022-07-29T05:01:17;100676.06;;;35.11;29.22
59407;BME280;45208;32.616;-115.472;2022-07-29T05:03:44;100685.03;;;35.06;29.49
59407;BME280;45208;32.616;-115.472;2022-07-29T05:06:11;100672.34;;;34.95;30.12
59407;BME280;45208;32.616;-115.472;2022-07-29T05:08:38;100682.56;;;34.89;30.13
59407;BME280;45208;32.616;-115.472;2022-07-29T05:11:04;100692.44;;;34.77;30.19
59407;BME280;45208;32.616;-115.472;2022-07-29T05:13:31;100684.97;;;34.67;29.31
59407;BME280;45208;32.616;-115.472;2022-07-29T05:15:58;100686.91;;;34.70;29.36
59407;BME280;45208;32.616;-115.472;2022-07-29T05:18:27;100688.16;;;34.69;28.86
59407;BME280;45208;32.616;-115.472;2022-07-29T05:20:54;100688.38;;;34.78;28.39
59407;BME280;45208;32.616;-115.472;2022-07-29T05:23:21;100687.03;;;34.63;28.72
59407;BME280;45208;32.616;-115.472;2022-07-29T05:25:47;100690.94;;;34.49;28.88
59407;BME280;45208;32.616;-115.472;2022-07-29T05:28:14;100693.03;;;34.65;28.86
59407;BME280;45208;32.616;-115.472;2022-07-29T05:30:41;100694.97;;;34.48;29.53
59407;BME280;45208;32.616;-115.472;2022-07-29T05:33:08;100689.88;;;34.39;29.36
59407;BME280;45208;32.616;-115.472;2022-07-29T05:35:34;100683.38;;;34.42;30.16
59407;BME280;45208;32.616;-115.472;2022-07-29T05:38:03;100683.50;;;34.35;30.83
59407;BME280;45208;32.616;-115.472;2022-07-29T05:40:30;100683.78;;;34.41;31.53
59407;BME280;45208;32.616;-115.472;2022-07-29T05:42:57;100686.81;;;34.27;32.14
59407;BME280;45208;32.616;-115.472;2022-07-29T05:45:23;100676.09;;;34.18;33.08
59407;BME280;45208;32.616;-115.472;2022-07-29T05:47:50;100678.59;;;34.12;33.07
59407;BME280;45208;32.616;-115.472;2022-07-29T05:50:17;100679.25;;;33.97;33.88
59407;BME280;45208;32.616;-115.472;2022-07-29T05:52:44;100689.78;;;33.92;34.12
59407;BME280;45208;32.616;-115.472;2022-07-29T05:55:10;100680.28;;;33.79;34.57
59407;BME280;45208;32.616;-115.472;2022-07-29T05:57:37;100686.38;;;33.74;36.14
59407;BME280;45208;32.616;-115.472;2022-07-29T06:00:04;100695.69;;;33.71;36.76
59407;BME280;45208;32.616;-115.472;2022-07-29T06:02:38;100684.47;;;33.68;36.55
59407;BME280;45208;32.616;-115.472;2022-07-29T06:05:05;100682.25;;;33.52;37.36
59407;BME280;45208;32.616;-115.472;2022-07-29T06:07:31;100685.00;;;33.59;37.94
59407;BME280;45208;32.616;-115.472;2022-07-29T06:09:58;100678.16;;;33.60;37.73
59407;BME280;45208;32.616;-115.472;2022-07-29T06:12:25;100671.22;;;33.34;38.94
59407;BME280;45208;32.616;-115.472;2022-07-29T06:14:52;100685.66;;;33.40;38.52
59407;BME280;45208;32.616;-115.472;2022-07-29T06:17:18;100684.81;;;33.43;38.85
59407;BME280;45208;32.616;-115.472;2022-07-29T06:19:45;100690.53;;;33.32;38.64
59407;BME280;45208;32.616;-115.472;2022-07-29T06:22:12;100692.50;;;33.39;38.63
59407;BME280;45208;32.616;-115.472;2022-07-29T06:24:41;100687.72;;;33.35;39.24
59407;BME280;45208;32.616;-115.472;2022-07-29T06:27:10;100687.25;;;33.41;39.25
59407;BME280;45208;32.616;-115.472;2022-07-29T06:29:37;100696.97;;;33.36;39.04
59407;BME280;45208;32.616;-115.472;2022-07-29T06:32:04;100691.69;;;33.42;38.28
59407;BME280;45208;32.616;-115.472;2022-07-29T06:34:31;100697.72;;;33.40;39.07
59407;BME280;45208;32.616;-115.472;2022-07-29T06:36:58;100705.84;;;33.31;40.09
59407;BME280;45208;32.616;-115.472;2022-07-29T06:39:24;100690.53;;;33.32;39.76
59407;BME280;45208;32.616;-115.472;2022-07-29T06:41:51;100702.97;;;33.38;39.80
59407;BME280;45208;32.616;-115.472;2022-07-29T06:44:24;100706.25;;;33.33;39.56
59407;BME280;45208;32.616;-115.472;2022-07-29T06:46:51;100701.41;;;33.33;40.25
59407;BME280;45208;32.616;-115.472;2022-07-29T06:49:18;100707.91;;;33.27;40.10
59407;BME280;45208;32.616;-115.472;2022-07-29T06:51:45;100705.91;;;33.27;40.30
59407;BME280;45208;32.616;-115.472;2022-07-29T06:54:14;100696.38;;;33.14;41.36
59407;BME280;45208;32.616;-115.472;2022-07-29T06:56:41;100704.38;;;33.19;41.38
59407;BME280;45208;32.616;-115.472;2022-07-29T06:59:10;100704.47;;;33.12;41.14
59407;BME280;45208;32.616;-115.472;2022-07-29T07:01:42;100714.88;;;33.15;41.10
59407;BME280;45208;32.616;-115.472;2022-07-29T07:04:10;100712.53;;;33.10;41.53
59407;BME280;45208;32.616;-115.472;2022-07-29T07:06:37;100727.84;;;33.09;41.71
59407;BME280;45208;32.616;-115.472;2022-07-29T07:09:04;100721.38;;;33.12;41.54
59407;BME280;45208;32.616;-115.472;2022-07-29T07:11:31;100728.97;;;33.15;41.75
59407;BME280;45208;32.616;-115.472;2022-07-29T07:13:58;100728.22;;;33.11;41.75
59407;BME280;45208;32.616;-115.472;2022-07-29T07:16:25;100729.84;;;33.09;41.64
59407;BME280;45208;32.616;-115.472;2022-07-29T07:18:52;100727.09;;;33.05;41.87
59407;BME280;45208;32.616;-115.472;2022-07-29T07:21:19;100739.91;;;33.10;42.19
59407;BME280;45208;32.616;-115.472;2022-07-29T07:23:46;100741.53;;;33.07;42.63
59407;BME280;45208;32.616;-115.472;2022-07-29T07:26:12;100733.09;;;33.03;43.01
59407;BME280;45208;32.616;-115.472;2022-07-29T07:28:40;100740.84;;;32.96;42.97
59407;BME280;45208;32.616;-115.472;2022-07-29T07:31:06;100747.69;;;32.95;42.38
59407;BME280;45208;32.616;-115.472;2022-07-29T07:33:33;100741.69;;;32.93;42.42
59407;BME280;45208;32.616;-115.472;2022-07-29T07:36:00;100743.38;;;32.80;42.22
59407;BME280;45208;32.616;-115.472;2022-07-29T07:38:26;100752.25;;;32.82;42.60
59407;BME280;45208;32.616;-115.472;2022-07-29T07:40:53;100744.63;;;32.75;42.22
59407;BME280;45208;32.616;-115.472;2022-07-29T07:43:20;100747.50;;;32.71;42.83
59407;BME280;45208;32.616;-115.472;2022-07-29T07:45:47;100759.97;;;32.67;42.36
59407;BME280;45208;32.616;-115.472;2022-07-29T07:48:14;100770.03;;;32.68;42.79
59407;BME280;45208;32.616;-115.472;2022-07-29T07:50:41;100769.34;;;32.53;43.02
59407;BME280;45208;32.616;-115.472;2022-07-29T07:53:07;100771.78;;;32.51;43.55
59407;BME280;45208;32.616;-115.472;2022-07-29T07:55:40;100761.38;;;32.44;45.57
59407;BME280;45208;32.616;-115.472;2022-07-29T07:58:07;100764.66;;;32.36;46.00
59407;BME280;45208;32.616;-115.472;2022-07-29T08:00:33;100761.47;;;32.30;46.97
59407;BME280;45208;32.616;-115.472;2022-07-29T08:03:00;100762.31;;;32.20;46.63
59407;BME280;45208;32.616;-115.472;2022-07-29T08:05:27;100768.72;;;32.24;46.56
59407;BME280;45208;32.616;-115.472;2022-07-29T08:07:53;100771.94;;;32.23;46.41
59407;BME280;45208;32.616;-115.472;2022-07-29T08:10:20;100770.00;;;32.16;46.57
59407;BME280;45208;32.616;-115.472;2022-07-29T08:13:09;100770.41;;;32.14;46.48
59407;BME280;45208;32.616;-115.472;2022-07-29T08:15:39;100775.22;;;32.10;46.38
59407;BME280;45208;32.616;-115.472;2022-07-29T08:18:06;100772.03;;;32.08;47.44
59407;BME280;45208;32.616;-115.472;2022-07-29T08:20:33;100787.28;;;32.11;47.35
59407;BME280;45208;32.616;-115.472;2022-07-29T08:23:02;100784.47;;;32.11;47.49
59407;BME280;45208;32.616;-115.472;2022-07-29T08:25:30;100796.13;;;32.09;47.83
59407;BME280;45208;32.616;-115.472;2022-07-29T08:27:57;100791.31;;;32.06;48.47
59407;BME280;45208;32.616;-115.472;2022-07-29T08:30:23;100789.69;;;32.09;47.63
59407;BME280;45208;32.616;-115.472;2022-07-29T08:32:50;100785.69;;;32.06;47.91
59407;BME280;45208;32.616;-115.472;2022-07-29T08:35:20;100787.28;;;32.14;47.52
59407;BME280;45208;32.616;-115.472;2022-07-29T08:37:47;100782.03;;;32.16;46.23
59407;BME280;45208;32.616;-115.472;2022-07-29T08:40:13;100771.25;;;32.04;46.34
59407;BME280;45208;32.616;-115.472;2022-07-29T08:42:40;100774.09;;;32.01;46.26
59407;BME280;45208;32.616;-115.472;2022-07-29T08:45:08;100768.03;;;32.06;45.82
59407;BME280;45208;32.616;-115.472;2022-07-29T08:47:35;100762.03;;;32.00;45.01
59407;BME280;45208;32.616;-115.472;2022-07-29T08:50:09;100756.03;;;31.98;45.32
59407;BME280;45208;32.616;-115.472;2022-07-29T08:52:37;100758.03;;;32.01;45.00
59407;BME280;45208;32.616;-115.472;2022-07-29T08:55:06;100756.03;;;31.98;45.30
59407;BME280;45208;32.616;-115.472;2022-07-29T08:57:34;100756.81;;;32.02;45.27
59407;BME280;45208;32.616;-115.472;2022-07-29T09:00:03;100756.06;;;31.91;46.13
59407;BME280;45208;32.616;-115.472;2022-07-29T09:02:37;100756.47;;;31.90;45.78
59407;BME280;45208;32.616;-115.472;2022-07-29T09:05:06;100752.44;;;31.91;44.96
59407;BME280;45208;32.616;-115.472;2022-07-29T09:07:33;100757.25;;;31.94;44.96
59407;BME280;45208;32.616;-115.472;2022-07-29T09:10:01;100758.53;;;31.82;45.82
59407;BME280;45208;32.616;-115.472;2022-07-29T09:12:30;100754.53;;;31.76;46.21
59407;BME280;45208;32.616;-115.472;2022-07-29T09:14:57;100766.56;;;31.76;45.72
59407;BME280;45208;32.616;-115.472;2022-07-29T09:17:49;100772.19;;;31.80;45.81
59407;BME280;45208;32.616;-115.472;2022-07-29T09:20:18;100763.38;;;31.78;46.07
59407;BME280;45208;32.616;-115.472;2022-07-29T09:22:45;100776.19;;;31.75;46.39
59407;BME280;45208;32.616;-115.472;2022-07-29T09:25:36;100774.59;;;31.71;46.35
59407;BME280;45208;32.616;-115.472;2022-07-29T09:28:14;100777.44;;;31.67;46.38
59407;BME280;45208;32.616;-115.472;2022-07-29T09:30:57;100767.81;;;31.65;46.45
59407;BME280;45208;32.616;-115.472;2022-07-29T09:33:32;100769.00;;;31.64;46.90
59407;BME280;45208;32.616;-115.472;2022-07-29T09:36:08;100771.44;;;31.62;46.65
59407;BME280;45208;32.616;-115.472;2022-07-29T09:38:36;100776.63;;;31.67;46.69
59407;BME280;45208;32.616;-115.472;2022-07-29T09:41:05;100769.78;;;31.71;46.09
59407;BME280;45208;32.616;-115.472;2022-07-29T09:43:34;100768.59;;;31.65;46.45
59407;BME280;45208;32.616;-115.472;2022-07-29T09:46:13;100751.34;;;31.60;46.59
59407;BME280;45208;32.616;-115.472;2022-07-29T09:48:40;100766.59;;;31.66;47.03
59407;BME280;45208;32.616;-115.472;2022-07-29T09:51:20;100765.38;;;31.67;46.72
59407;BME280;45208;32.616;-115.472;2022-07-29T09:53:47;100775.44;;;31.64;46.40
59407;BME280;45208;32.616;-115.472;2022-07-29T09:56:13;100769.00;;;31.67;45.86
59407;BME280;45208;32.616;-115.472;2022-07-29T09:58:40;100768.59;;;31.69;45.32
59407;BME280;45208;32.616;-115.472;2022-07-29T10:01:06;100764.56;;;31.70;45.38
59407;BME280;45208;32.616;-115.472;2022-07-29T10:03:50;100777.44;;;31.78;44.04
59407;BME280;45208;32.616;-115.472;2022-07-29T10:06:18;100763.75;;;31.76;43.17
59407;BME280;45208;32.616;-115.472;2022-07-29T10:08:44;100779.38;;;31.84;43.49
59407;BME280;45208;32.616;-115.472;2022-07-29T10:11:13;100781.41;;;31.77;43.16
59407;BME280;45208;32.616;-115.472;2022-07-29T10:13:41;100775.00;;;31.73;43.21
59407;BME280;45208;32.616;-115.472;2022-07-29T10:16:09;100775.41;;;31.71;42.93
59407;BME280;45208;32.616;-115.472;2022-07-29T10:18:38;100785.44;;;31.76;41.98
59407;BME280;45208;32.616;-115.472;2022-07-29T10:21:06;100792.25;;;31.75;42.48
59407;BME280;45208;32.616;-115.472;2022-07-29T10:23:33;100788.25;;;31.69;42.36
59407;BME280;45208;32.616;-115.472;2022-07-29T10:26:02;100794.69;;;31.66;42.41
59407;BME280;45208;32.616;-115.472;2022-07-29T10:28:32;100813.97;;;31.67;42.36
59407;BME280;45208;32.616;-115.472;2022-07-29T10:31:02;100828.41;;;31.66;42.11
59407;BME280;45208;32.616;-115.472;2022-07-29T10:34:04;100847.69;;;31.64;42.20
59407;BME280;45208;32.616;-115.472;2022-07-29T10:38:03;100850.91;;;31.58;41.61
59407;BME280;45208;32.616;-115.472;2022-07-29T10:43:33;100874.16;;;31.77;38.38
59407;BME280;45208;32.616;-115.472;2022-07-29T10:46:02;100877.38;;;31.82;37.94
59407;BME280;45208;32.616;-115.472;2022-07-29T10:48:29;100879.00;;;31.80;37.02
59407;BME280;45208;32.616;-115.472;2022-07-29T10:51:02;100871.78;;;31.79;35.73
59407;BME280;45208;32.616;-115.472;2022-07-29T10:53:49;100873.38;;;31.73;35.65
59407;BME280;45208;32.616;-115.472;2022-07-29T10:56:31;100878.97;;;31.69;35.47
59407;BME280;45208;32.616;-115.472;2022-07-29T11:01:50;100870.97;;;31.64;35.36
59407;BME280;45208;32.616;-115.472;2022-07-29T11:07:10;100858.94;;;31.60;35.00
59407;BME280;45208;32.616;-115.472;2022-07-29T11:09:37;100849.69;;;31.60;34.44
59407;BME280;45208;32.616;-115.472;2022-07-29T11:15:10;100838.06;;;31.61;33.85
59407;BME280;45208;32.616;-115.472;2022-07-29T11:18:03;100826.81;;;31.65;33.13
59407;BME280;45208;32.616;-115.472;2022-07-29T11:20:37;100820.41;;;31.61;32.97
59407;BME280;45208;32.616;-115.472;2022-07-29T11:23:28;100812.78;;;31.61;32.51
59407;BME280;45208;32.616;-115.472;2022-07-29T11:26:20;100813.16;;;31.67;32.37
59407;BME280;45208;32.616;-115.472;2022-07-29T11:28:55;100799.53;;;31.62;32.58
59407;BME280;45208;32.616;-115.472;2022-07-29T11:31:44;100809.19;;;31.61;32.12
59407;BME280;45208;32.616;-115.472;2022-07-29T11:34:31;100814.38;;;31.58;32.05
59407;BME280;45208;32.616;-115.472;2022-07-29T11:39:37;100788.28;;;31.65;31.70
59407;BME280;45208;32.616;-115.472;2022-07-29T11:45:02;100788.25;;;31.79;31.20
59407;BME280;45208;32.616;-115.472;2022-07-29T11:47:34;100783.03;;;31.74;31.62
59407;BME280;45208;32.616;-115.472;2022-07-29T11:50:01;100775.41;;;31.68;32.10
59407;BME280;45208;32.616;-115.472;2022-07-29T11:52:47;100773.84;;;31.63;32.91
59407;BME280;45208;32.616;-115.472;2022-07-29T11:55:19;100779.44;;;31.67;32.65
59407;BME280;45208;32.616;-115.472;2022-07-29T11:57:59;100776.66;;;31.56;33.15
59407;BME280;45208;32.616;-115.472;2022-07-29T12:02:57;100786.25;;;31.66;33.38
59407;BME280;45208;32.616;-115.472;2022-07-29T12:05:42;100789.06;;;31.66;32.92
59407;BME280;45208;32.616;-115.472;2022-07-29T12:08:15;100785.47;;;31.65;33.44
59407;BME280;45208;32.616;-115.472;2022-07-29T12:10:46;100790.69;;;31.67;33.44
59407;BME280;45208;32.616;-115.472;2022-07-29T12:13:14;100774.63;;;31.64;33.12
59407;BME280;45208;32.616;-115.472;2022-07-29T12:15:51;100777.84;;;31.66;33.25
59407;BME280;45208;32.616;-115.472;2022-07-29T12:18:20;100780.66;;;31.58;33.36
59407;BME280;45208;32.616;-115.472;2022-07-29T12:20:47;100781.88;;;31.54;34.20
59407;BME280;45208;32.616;-115.472;2022-07-29T12:23:15;100794.75;;;31.51;35.14
59407;BME280;45208;32.616;-115.472;2022-07-29T12:25:43;100797.94;;;31.53;35.86
59407;BME280;45208;32.616;-115.472;2022-07-29T12:28:13;100800.38;;;31.48;37.08
59407;BME280;45208;32.616;-115.472;2022-07-29T12:30:44;100800.78;;;31.39;37.64
59407;BME280;45208;32.616;-115.472;2022-07-29T12:33:12;100815.22;;;31.38;38.05
59407;BME280;45208;32.616;-115.472;2022-07-29T12:35:41;100816.44;;;31.33;37.89
59407;BME280;45208;32.616;-115.472;2022-07-29T12:38:12;100820.50;;;31.29;38.64
59407;BME280;45208;32.616;-115.472;2022-07-29T12:40:39;100829.31;;;31.27;39.57
59407;BME280;45208;32.616;-115.472;2022-07-29T12:43:17;100838.94;;;31.26;40.10
59407;BME280;45208;32.616;-115.472;2022-07-29T12:45:49;100838.91;;;31.15;41.14
59407;BME280;45208;32.616;-115.472;2022-07-29T12:48:18;100842.13;;;31.14;42.16
59407;BME280;45208;32.616;-115.472;2022-07-29T12:51:01;100843.75;;;31.08;42.94
59407;BME280;45208;32.616;-115.472;2022-07-29T12:53:29;100852.56;;;31.10;43.50
59407;BME280;45208;32.616;-115.472;2022-07-29T12:55:58;100852.56;;;31.10;44.25
59407;BME280;45208;32.616;-115.472;2022-07-29T12:58:29;100853.78;;;31.09;45.20
59407;BME280;45208;32.616;-115.472;2022-07-29T13:01:13;100858.59;;;31.08;45.50
59407;BME280;45208;32.616;-115.472;2022-07-29T13:03:55;100861.00;;;31.10;47.46
59407;BME280;45208;32.616;-115.472;2022-07-29T13:11:46;100852.56;;;31.03;49.38
59407;BME280;45208;32.616;-115.472;2022-07-29T13:14:34;100865.38;;;31.04;49.65
59407;BME280;45208;32.616;-115.472;2022-07-29T13:17:11;100869.41;;;31.06;51.46
59407;BME280;45208;32.616;-115.472;2022-07-29T13:19:41;100875.00;;;31.03;52.45
59407;BME280;45208;32.616;-115.472;2022-07-29T13:22:09;100883.81;;;31.05;52.42